(°C)
(°C)
SSZ
SSZ
SSZ
S
S
SSZ
SZ
(km/h)
14-26
12-22
11-18
9-14
7-11
5-7
4-6
(mm)
0
0
0
0
0
0
0
(%)
1
0
0
0
0
0
0

Výška Slnka nad obzorom

/ -35.4°
sun-icon
UV 1
07:25
17:04
Posledná štvrť (266°)
21:59
15:05

Správy METAR pre lokalitu 55.6°S 37.27°V (UUWW)

Čas Podmienky Teplota/
Rosný bod
Vietor Viditeľnosť Počasie Oblaky Tlak Zmeniť Nespracované
MVFR 6°C / 3°C 10º 12kt >10km - Broken Clouds 1900ft 1019 No Significant change. Runway 01: Wet or puddles, 51-100% contamination with <1mm, friction coefficient 0.50. UUWW 281800Z 01006MPS 9999 BKN019 06/03 Q1019 R01/290050 NOSIG
MVFR 6°C / 3°C 10º 10kt >10km - Broken Clouds 2200ft 1019 No Significant change. Runway 24: Wet or puddles, 51-100% contamination with <1mm, friction coefficient 0.50. UUWW 281730Z 01005MPS 9999 BKN022 06/03 Q1019 R24/290050 NOSIG
MVFR 7°C / 3°C 350º 14kt. Wind Shear present on Runway 24. >10km - Broken Clouds 2200ft 1019 No Significant change. Runway 24: Wet or puddles, 51-100% contamination with <1mm, friction coefficient 0.50. UUWW 281700Z 35007MPS 9999 BKN022 07/03 Q1019 WS R24 R24/290050 NOSIG
MVFR 7°C / 4°C 350º 16kt. Wind Shear present on Runway 24. >10km - Broken Clouds 1300ft 1018 No Significant change. Runway 24: Wet or puddles, 51-100% contamination with <1mm, friction coefficient 0.50. UUWW 281630Z 35008MPS 9999 BKN013 07/04 Q1018 WS R24 R24/290050 NOSIG
MVFR 7°C / 5°C 350º 12kt. Wind Shear present on Runway 24. 9000m Light Showers Rain 3.00mm precipitation Vertical Visibility of 0ft.
Broken Clouds 3000ft
1017 No Significant change. Runway 24: Wet or puddles, 51-100% contamination with <1mm, friction coefficient 0.50. UUWW 281600Z 35006MPS 9000 -SHRA FEW008 BKN030CB 07/05 Q1017 WS R24 R24/290050 NOSIG
VFR 8°C / 6°C 310º 10kt >10km - Few Clouds 600ft 1016 No Significant change. Runway 24: Wet or puddles, 51-100% contamination with <1mm, friction coefficient 0.50. UUWW 281530Z 31005MPS 9999 FEW006 08/06 Q1016 R24/290050 NOSIG
MVFR 8°C / 6°C 320º 10kt 9000m Light Showers Rain 3.00mm precipitation Vertical Visibility of 0ft.
Broken Clouds 3000ft
1016 No Significant change. Runway 24: Wet or puddles, 51-100% contamination with <1mm, friction coefficient 0.50. UUWW 281500Z 32005MPS 9000 -SHRA FEW008 BKN030CB 08/06 Q1016 R24/290050 NOSIG
MVFR 8°C / 6°C 300º 16kt >10km Light Showers Rain 3.00mm precipitation Vertical Visibility of 0ft.
Broken Clouds 3000ft
1015 No Significant change. Runway 24: Wet or puddles, 51-100% contamination with <1mm, friction coefficient 0.50. UUWW 281430Z 30008MPS 9999 -SHRA FEW010 BKN030CB 08/06 Q1015 R24/290050 NOSIG
VFR 9°C / 6°C 300º 12kt. Wind Shear present on Runway 24. >10km - Few Clouds 1400ft 1014 No Significant change. Runway 24: Wet or puddles, 51-100% contamination with <1mm, friction coefficient 0.50. UUWW 281400Z 30006MPS 9999 FEW014 09/06 Q1014 WS R24 R24/290050 NOSIG
MVFR 9°C / 6°C 300º 12kt >10km - Few Clouds 1000ft
Broken Clouds 3000ft
1013 No Significant change. Runway 24: Wet or puddles, 51-100% contamination with <1mm, friction coefficient 0.50. UUWW 281330Z 30006MPS 9999 FEW010 BKN030 09/06 Q1013 R24/290050 NOSIG
MVFR 9°C / 6°C 300º 12kt >10km - Few Clouds 1300ft
Broken Clouds 2000ft
1013 No Significant change. Runway 24: Wet or puddles, 51-100% contamination with <1mm, friction coefficient 0.50. UUWW 281300Z 30006MPS 9999 FEW013 BKN020 09/06 Q1013 R24/290050 NOSIG
MVFR 9°C / 6°C 310º 14kt >10km - Broken Clouds 1300ft 1012 No Significant change. Runway 24: Wet or puddles, 51-100% contamination with <1mm, friction coefficient 0.50. UUWW 281230Z 31007MPS 9999 BKN013 09/06 Q1012 R24/290050 NOSIG
MVFR 9°C / 6°C 310º 16kt Gust 25kt. Wind Shear present on Runway 24. 5000m Light Showers Rain 3.00mm precipitation Vertical Visibility of 0ft.
Broken Clouds 2000ft
1012 No Significant change. Runway 24: Wet or puddles, 51-100% contamination with <1mm, friction coefficient 0.50. UUWW 281200Z 31008G13MPS 5000 -SHRA FEW010 BKN020CB 09/06 Q1012 WS R24 R24/290050 NOSIG
MVFR 10°C / 7°C 290º 12kt >10km - Broken Clouds 2600ft 1011 No Significant change. Runway 24: Wet or puddles, 51-100% contamination with <1mm, friction coefficient 0.50. UUWW 281130Z 29006MPS 9999 BKN026 10/07 Q1011 R24/290050 NOSIG
VFR 10°C / 7°C 290º 14kt >10km - Few Clouds 1500ft 1010 No Significant change. Runway 24: Wet or puddles, 51-100% contamination with <1mm, friction coefficient 0.50. UUWW 281100Z 29007MPS 9999 FEW015 10/07 Q1010 R24/290050 NOSIG
VFR 10°C / 7°C 280º 12kt >10km - Few Clouds 1100ft
Broken Clouds 4000ft
1009 No Significant change. Runway 24: Wet or puddles, 51-100% contamination with <1mm, friction coefficient 0.50. UUWW 281030Z 28006MPS 9999 FEW011 BKN040 10/07 Q1009 R24/290050 NOSIG
MVFR 10°C / 7°C 270º 12kt >10km - Broken Clouds 1100ft
Overcast 4000ft
1009 No Significant change. Runway 24: Wet or puddles, 51-100% contamination with <1mm, friction coefficient 0.50. UUWW 281000Z 27006MPS 9999 BKN011 OVC040 10/07 Q1009 R24/290050 NOSIG
IFR 9°C / 7°C 270º 12kt 8000m Light Drizzle 0.20mm precipitation Vertical Visibility of 0ft. 1009 No Significant change. Runway 24: Wet or puddles, 51-100% contamination with <1mm, friction coefficient 0.50. UUWW 280930Z 27006MPS 8000 -DZ OVC005 09/07 Q1009 R24/290050 NOSIG
IFR 9°C / 7°C 270º 12kt >10km - Broken Clouds 700ft
Overcast 2000ft
1009 No Significant change. Runway 24: Wet or puddles, 51-100% contamination with <1mm, friction coefficient 0.50. UUWW 280900Z 27006MPS 9999 BKN007 OVC020 09/07 Q1009 R24/290050 NOSIG
IFR 9°C / 7°C 260º 14kt >10km - Overcast 600ft 1009 No Significant change. Runway 24: Wet or puddles, 51-100% contamination with <1mm, friction coefficient 0.50. UUWW 280830Z 26007MPS 9999 OVC006 09/07 Q1009 R24/290050 NOSIG
IFR 8°C / 6°C 250º 12kt 9000m Light Drizzle 0.20mm precipitation Vertical Visibility of 0ft. 1008 No Significant change. Runway 24: Wet or puddles, 51-100% contamination with <1mm, friction coefficient 0.50. UUWW 280800Z 25006MPS 9000 -DZ OVC005 08/06 Q1008 R24/290050 NOSIG
LIFR 7°C / 6°C 250º 12kt >10km Light Drizzle 0.20mm precipitation Vertical Visibility of 0ft. 1008 No Significant change. Runway 24: Wet or puddles, 51-100% contamination with <1mm, friction coefficient 0.50. UUWW 280730Z 25006MPS 9999 -DZ OVC004 07/06 Q1008 R24/290050 NOSIG
LIFR 7°C / 5°C 230º 12kt 4900m Light Drizzle 0.20mm precipitation Vertical Visibility of 0ft. 1008 No Significant change. Runway 24: Wet or puddles, 51-100% contamination with <1mm, friction coefficient 0.50. UUWW 280700Z 23006MPS 4900 -DZ OVC003 07/05 Q1008 R24/290050 NOSIG
LIFR 6°C / 5°C 230º 12kt 5000m Light Drizzle 0.20mm precipitation Vertical Visibility of 0ft. 1008 No Significant change. Runway 24: Wet or puddles, 51-100% contamination with <1mm, friction coefficient 0.50. UUWW 280630Z 23006MPS 5000 -DZ OVC004 06/05 Q1008 R24/290050 NOSIG

MVFR

6°C / 3°C

[Viac]
Vietor 10º 12kt
Viditeľnosť >10km
Počasie -
Oblaky Broken Clouds 1900ft
Tlak 1019
Zmeniť No Significant change. Runway 01: Wet or puddles, 51-100% contamination with <1mm, friction coefficient 0.50.
Nespracované UUWW 281800Z 01006MPS 9999 BKN019 06/03 Q1019 R01/290050 NOSIG

MVFR

6°C / 3°C

[Viac]
Vietor 10º 10kt
Viditeľnosť >10km
Počasie -
Oblaky Broken Clouds 2200ft
Tlak 1019
Zmeniť No Significant change. Runway 24: Wet or puddles, 51-100% contamination with <1mm, friction coefficient 0.50.
Nespracované UUWW 281730Z 01005MPS 9999 BKN022 06/03 Q1019 R24/290050 NOSIG

MVFR

7°C / 3°C

[Viac]
Vietor 350º 14kt. Wind Shear present on Runway 24.
Viditeľnosť >10km
Počasie -
Oblaky Broken Clouds 2200ft
Tlak 1019
Zmeniť No Significant change. Runway 24: Wet or puddles, 51-100% contamination with <1mm, friction coefficient 0.50.
Nespracované UUWW 281700Z 35007MPS 9999 BKN022 07/03 Q1019 WS R24 R24/290050 NOSIG

MVFR

7°C / 4°C

[Viac]
Vietor 350º 16kt. Wind Shear present on Runway 24.
Viditeľnosť >10km
Počasie -
Oblaky Broken Clouds 1300ft
Tlak 1018
Zmeniť No Significant change. Runway 24: Wet or puddles, 51-100% contamination with <1mm, friction coefficient 0.50.
Nespracované UUWW 281630Z 35008MPS 9999 BKN013 07/04 Q1018 WS R24 R24/290050 NOSIG

MVFR

7°C / 5°C

[Viac]
Vietor 350º 12kt. Wind Shear present on Runway 24.
Viditeľnosť 9000m
Počasie Light Showers Rain 3.00mm precipitation
Oblaky Vertical Visibility of 0ft.
Broken Clouds 3000ft
Tlak 1017
Zmeniť No Significant change. Runway 24: Wet or puddles, 51-100% contamination with <1mm, friction coefficient 0.50.
Nespracované UUWW 281600Z 35006MPS 9000 -SHRA FEW008 BKN030CB 07/05 Q1017 WS R24 R24/290050 NOSIG

VFR

8°C / 6°C

[Viac]
Vietor 310º 10kt
Viditeľnosť >10km
Počasie -
Oblaky Few Clouds 600ft
Tlak 1016
Zmeniť No Significant change. Runway 24: Wet or puddles, 51-100% contamination with <1mm, friction coefficient 0.50.
Nespracované UUWW 281530Z 31005MPS 9999 FEW006 08/06 Q1016 R24/290050 NOSIG

MVFR

8°C / 6°C

[Viac]
Vietor 320º 10kt
Viditeľnosť 9000m
Počasie Light Showers Rain 3.00mm precipitation
Oblaky Vertical Visibility of 0ft.
Broken Clouds 3000ft
Tlak 1016
Zmeniť No Significant change. Runway 24: Wet or puddles, 51-100% contamination with <1mm, friction coefficient 0.50.
Nespracované UUWW 281500Z 32005MPS 9000 -SHRA FEW008 BKN030CB 08/06 Q1016 R24/290050 NOSIG

MVFR

8°C / 6°C

[Viac]
Vietor 300º 16kt
Viditeľnosť >10km
Počasie Light Showers Rain 3.00mm precipitation
Oblaky Vertical Visibility of 0ft.
Broken Clouds 3000ft
Tlak 1015
Zmeniť No Significant change. Runway 24: Wet or puddles, 51-100% contamination with <1mm, friction coefficient 0.50.
Nespracované UUWW 281430Z 30008MPS 9999 -SHRA FEW010 BKN030CB 08/06 Q1015 R24/290050 NOSIG

VFR

9°C / 6°C

[Viac]
Vietor 300º 12kt. Wind Shear present on Runway 24.
Viditeľnosť >10km
Počasie -
Oblaky Few Clouds 1400ft
Tlak 1014
Zmeniť No Significant change. Runway 24: Wet or puddles, 51-100% contamination with <1mm, friction coefficient 0.50.
Nespracované UUWW 281400Z 30006MPS 9999 FEW014 09/06 Q1014 WS R24 R24/290050 NOSIG

MVFR

9°C / 6°C

[Viac]
Vietor 300º 12kt
Viditeľnosť >10km
Počasie -
Oblaky Few Clouds 1000ft
Broken Clouds 3000ft
Tlak 1013
Zmeniť No Significant change. Runway 24: Wet or puddles, 51-100% contamination with <1mm, friction coefficient 0.50.
Nespracované UUWW 281330Z 30006MPS 9999 FEW010 BKN030 09/06 Q1013 R24/290050 NOSIG

MVFR

9°C / 6°C

[Viac]
Vietor 300º 12kt
Viditeľnosť >10km
Počasie -
Oblaky Few Clouds 1300ft
Broken Clouds 2000ft
Tlak 1013
Zmeniť No Significant change. Runway 24: Wet or puddles, 51-100% contamination with <1mm, friction coefficient 0.50.
Nespracované UUWW 281300Z 30006MPS 9999 FEW013 BKN020 09/06 Q1013 R24/290050 NOSIG

MVFR

9°C / 6°C

[Viac]
Vietor 310º 14kt
Viditeľnosť >10km
Počasie -
Oblaky Broken Clouds 1300ft
Tlak 1012
Zmeniť No Significant change. Runway 24: Wet or puddles, 51-100% contamination with <1mm, friction coefficient 0.50.
Nespracované UUWW 281230Z 31007MPS 9999 BKN013 09/06 Q1012 R24/290050 NOSIG

MVFR

9°C / 6°C

[Viac]
Vietor 310º 16kt Gust 25kt. Wind Shear present on Runway 24.
Viditeľnosť 5000m
Počasie Light Showers Rain 3.00mm precipitation
Oblaky Vertical Visibility of 0ft.
Broken Clouds 2000ft
Tlak 1012
Zmeniť No Significant change. Runway 24: Wet or puddles, 51-100% contamination with <1mm, friction coefficient 0.50.
Nespracované UUWW 281200Z 31008G13MPS 5000 -SHRA FEW010 BKN020CB 09/06 Q1012 WS R24 R24/290050 NOSIG

MVFR

10°C / 7°C

[Viac]
Vietor 290º 12kt
Viditeľnosť >10km
Počasie -
Oblaky Broken Clouds 2600ft
Tlak 1011
Zmeniť No Significant change. Runway 24: Wet or puddles, 51-100% contamination with <1mm, friction coefficient 0.50.
Nespracované UUWW 281130Z 29006MPS 9999 BKN026 10/07 Q1011 R24/290050 NOSIG

VFR

10°C / 7°C

[Viac]
Vietor 290º 14kt
Viditeľnosť >10km
Počasie -
Oblaky Few Clouds 1500ft
Tlak 1010
Zmeniť No Significant change. Runway 24: Wet or puddles, 51-100% contamination with <1mm, friction coefficient 0.50.
Nespracované UUWW 281100Z 29007MPS 9999 FEW015 10/07 Q1010 R24/290050 NOSIG

VFR

10°C / 7°C

[Viac]
Vietor 280º 12kt
Viditeľnosť >10km
Počasie -
Oblaky Few Clouds 1100ft
Broken Clouds 4000ft
Tlak 1009
Zmeniť No Significant change. Runway 24: Wet or puddles, 51-100% contamination with <1mm, friction coefficient 0.50.
Nespracované UUWW 281030Z 28006MPS 9999 FEW011 BKN040 10/07 Q1009 R24/290050 NOSIG

MVFR

10°C / 7°C

[Viac]
Vietor 270º 12kt
Viditeľnosť >10km
Počasie -
Oblaky Broken Clouds 1100ft
Overcast 4000ft
Tlak 1009
Zmeniť No Significant change. Runway 24: Wet or puddles, 51-100% contamination with <1mm, friction coefficient 0.50.
Nespracované UUWW 281000Z 27006MPS 9999 BKN011 OVC040 10/07 Q1009 R24/290050 NOSIG

IFR

9°C / 7°C

[Viac]
Vietor 270º 12kt
Viditeľnosť 8000m
Počasie Light Drizzle 0.20mm precipitation
Oblaky Vertical Visibility of 0ft.
Tlak 1009
Zmeniť No Significant change. Runway 24: Wet or puddles, 51-100% contamination with <1mm, friction coefficient 0.50.
Nespracované UUWW 280930Z 27006MPS 8000 -DZ OVC005 09/07 Q1009 R24/290050 NOSIG

IFR

9°C / 7°C

[Viac]
Vietor 270º 12kt
Viditeľnosť >10km
Počasie -
Oblaky Broken Clouds 700ft
Overcast 2000ft
Tlak 1009
Zmeniť No Significant change. Runway 24: Wet or puddles, 51-100% contamination with <1mm, friction coefficient 0.50.
Nespracované UUWW 280900Z 27006MPS 9999 BKN007 OVC020 09/07 Q1009 R24/290050 NOSIG

IFR

9°C / 7°C

[Viac]
Vietor 260º 14kt
Viditeľnosť >10km
Počasie -
Oblaky Overcast 600ft
Tlak 1009
Zmeniť No Significant change. Runway 24: Wet or puddles, 51-100% contamination with <1mm, friction coefficient 0.50.
Nespracované UUWW 280830Z 26007MPS 9999 OVC006 09/07 Q1009 R24/290050 NOSIG

IFR

8°C / 6°C

[Viac]
Vietor 250º 12kt
Viditeľnosť 9000m
Počasie Light Drizzle 0.20mm precipitation
Oblaky Vertical Visibility of 0ft.
Tlak 1008
Zmeniť No Significant change. Runway 24: Wet or puddles, 51-100% contamination with <1mm, friction coefficient 0.50.
Nespracované UUWW 280800Z 25006MPS 9000 -DZ OVC005 08/06 Q1008 R24/290050 NOSIG

LIFR

7°C / 6°C

[Viac]
Vietor 250º 12kt
Viditeľnosť >10km
Počasie Light Drizzle 0.20mm precipitation
Oblaky Vertical Visibility of 0ft.
Tlak 1008
Zmeniť No Significant change. Runway 24: Wet or puddles, 51-100% contamination with <1mm, friction coefficient 0.50.
Nespracované UUWW 280730Z 25006MPS 9999 -DZ OVC004 07/06 Q1008 R24/290050 NOSIG

LIFR

7°C / 5°C

[Viac]
Vietor 230º 12kt
Viditeľnosť 4900m
Počasie Light Drizzle 0.20mm precipitation
Oblaky Vertical Visibility of 0ft.
Tlak 1008
Zmeniť No Significant change. Runway 24: Wet or puddles, 51-100% contamination with <1mm, friction coefficient 0.50.
Nespracované UUWW 280700Z 23006MPS 4900 -DZ OVC003 07/05 Q1008 R24/290050 NOSIG

LIFR

6°C / 5°C

[Viac]
Vietor 230º 12kt
Viditeľnosť 5000m
Počasie Light Drizzle 0.20mm precipitation
Oblaky Vertical Visibility of 0ft.
Tlak 1008
Zmeniť No Significant change. Runway 24: Wet or puddles, 51-100% contamination with <1mm, friction coefficient 0.50.
Nespracované UUWW 280630Z 23006MPS 5000 -DZ OVC004 06/05 Q1008 R24/290050 NOSIG

Správy TAF pre lokalitu 55.6°S 37.27°V (UUWW)

From till


Maximum Temperature 10ºC on . Minimum Temperature 3ºC on .
From till Wind 320º 4kt. Visibility 10km or more. Few Clouds 700ft. Broken Clouds 1600ft.
Temporarly from till Visibility 305.775m. Fog . Obscured Sky.
Becoming from till Wind 220º 10kt. Visibility 10km or more. Broken Clouds 700ft.
Temporarly from till Wind 240º 16kt. Gust 25kt. Light Showers Rain . Broken Clouds 400ft. Broken Clouds 1600ft.
Becoming from till Wind 220º 10kt. Visibility 10km or more. Broken Clouds 1600ft.

Nespracované: TAF UUWW 281659Z 2818/2918 32002MPS 9999 FEW007 BKN016 TX10/2912Z TN03/2904Z TEMPO 2821/2905 0300 FG VV002 BECMG 2905/2906 22005MPS BKN007 TEMPO 2906/2911 24008G13MPS -SHRA BKN004 BKN016CB BECMG 2911/2913 BKN016

Aktuálne satelitné snímky a snímky zrážok pre lokalitu 55.6°S 37.27°V

Značka polohy je umiestnená na55.6°S 37.27°V. [Viac]

Satelitné snímky zhotovované v reálnom čase využívajú viditeľné svetlo počas dňa a infračervené žiarenie počas noci. Vzhľadom na to, že infračervené žiarenie zisťuje teplotné rozdiely, snímka v noci nie je tmavá. Nízke oblaky a hmlu je, žiaľ, ťažké odlíšiť od prízemných teplôt, preto môžu byť počas noci takmer neviditeľné. Meteosat satelitné snímky pre Európu sú aktualizované v reálnom čase každých 5 minút. Snímky z GOES-16/GOES-17 (Severná a Južná Amerika) a Himawari (Ázia) sú aktualizované každých 10 minút.

Copyright 2021 EUMETSAT / meteoblue. / Copyright 2021 meteoblue

Radar a krátkodobá predpoveď zrážok pre 55.6°S 37.27°V

Mrholenie
Slabý
Mierne
Ťažké
Veľmi ťažké
Krúpy

Značka polohy je umiestnená na 55.6°S 37.27°V. Táto animácia ukazuje zrážky pozorované radarom za poslednú hodinu a tiež 1h predpoveď. Mrholenie alebo slabé sneženie môže byť pre radar neviditeľné. Intenzita zrážok je farebne označená od svetlomodrej po oranžovú.